createdAt,value
2018-03-22T00:00:07.639Z,64.5
2018-03-22T00:01:09.293Z,64.4
2018-03-22T00:02:10.938Z,63.8
2018-03-22T00:03:12.604Z,62.3
2018-03-22T00:04:14.251Z,62.4
2018-03-22T00:05:15.900Z,62.8
2018-03-22T00:06:17.562Z,63.2
2018-03-22T00:07:19.206Z,63.5
2018-03-22T00:08:20.917Z,62.9
2018-03-22T00:09:22.565Z,62.6
2018-03-22T00:10:24.224Z,62.2
2018-03-22T00:11:25.875Z,62.6
2018-03-22T00:12:27.526Z,62.9
2018-03-22T00:13:29.173Z,63.2
2018-03-22T00:14:30.819Z,63.6
2018-03-22T00:15:32.468Z,63.9
2018-03-22T00:16:34.116Z,64.6
2018-03-22T00:17:35.760Z,65.5
2018-03-22T00:18:37.417Z,65.5
2018-03-22T00:19:39.072Z,66.7
2018-03-22T00:20:40.722Z,67.7
2018-03-22T00:21:42.376Z,68.0
2018-03-22T00:22:44.069Z,68.7
2018-03-22T00:23:45.685Z,68.5
2018-03-22T00:24:47.343Z,68.0
2018-03-22T00:25:48.990Z,67.8
2018-03-22T00:26:50.642Z,67.2
2018-03-22T00:27:52.309Z,67.1
2018-03-22T00:28:53.949Z,67.0
2018-03-22T00:29:55.605Z,66.3
2018-03-22T00:30:57.262Z,66.0
2018-03-22T00:31:58.913Z,66.9
2018-03-22T00:33:00.563Z,66.9
2018-03-22T00:34:02.210Z,67.2
2018-03-22T00:35:03.860Z,67.7
2018-03-22T00:36:05.509Z,68.1
2018-03-22T00:37:07.167Z,67.9
2018-03-22T00:38:08.812Z,68.5
2018-03-22T00:39:10.465Z,68.7
2018-03-22T00:40:12.115Z,68.2
2018-03-22T00:41:13.771Z,68.0
2018-03-22T00:42:15.418Z,68.6
2018-03-22T00:43:17.075Z,68.3
2018-03-22T00:44:18.729Z,68.0
2018-03-22T00:45:20.372Z,67.9
2018-03-22T00:46:22.029Z,68.3
2018-03-22T00:47:23.681Z,68.3
2018-03-22T00:48:25.337Z,69.2
2018-03-22T00:49:26.989Z,70.7
2018-03-22T00:50:28.636Z,70.6
2018-03-22T00:51:30.281Z,71.6
2018-03-22T00:52:31.933Z,72.6
2018-03-22T00:53:33.580Z,71.9
2018-03-22T00:54:35.233Z,71.7
2018-03-22T00:55:36.878Z,72.9
2018-03-22T00:56:38.533Z,72.6
2018-03-22T00:57:40.181Z,73.1
2018-03-22T00:58:41.835Z,74.2
2018-03-22T00:59:43.489Z,74.8
2018-03-22T01:00:45.138Z,75.4
2018-03-22T01:01:46.789Z,75.8
2018-03-22T01:02:48.444Z,76.7
2018-03-22T01:03:50.094Z,76.7
2018-03-22T01:04:51.751Z,76.9
2018-03-22T01:05:53.390Z,77.2
2018-03-22T01:06:55.025Z,76.9
2018-03-22T01:07:56.668Z,77.2
2018-03-22T01:08:58.318Z,77.2
2018-03-22T01:09:59.957Z,77.5
2018-03-22T01:11:01.628Z,76.7
2018-03-22T01:12:03.275Z,76.3
2018-03-22T01:13:04.923Z,76.3
2018-03-22T01:14:06.563Z,76.6
2018-03-22T01:15:08.212Z,76.5
2018-03-22T01:16:09.860Z,76.8
2018-03-22T01:17:11.504Z,76.5
2018-03-22T01:18:13.154Z,76.3
2018-03-22T01:19:14.793Z,77.1
2018-03-22T01:20:16.433Z,75.9
2018-03-22T01:21:18.077Z,75.9
2018-03-22T01:22:19.718Z,76.1
2018-03-22T01:23:21.370Z,75.7
2018-03-22T01:24:23.024Z,76.0
2018-03-22T01:25:24.663Z,75.9
2018-03-22T01:26:26.319Z,76.8
2018-03-22T01:27:27.964Z,76.6
2018-03-22T01:28:29.607Z,77.8
2018-03-22T01:29:31.301Z,77.3
2018-03-22T01:30:32.949Z,76.5
2018-03-22T01:31:34.591Z,76.4
2018-03-22T01:32:36.273Z,76.3
2018-03-22T01:33:37.921Z,76.4
2018-03-22T01:34:39.568Z,75.6
2018-03-22T01:35:41.208Z,75.8
2018-03-22T01:36:42.869Z,75.0
2018-03-22T01:37:44.514Z,75.5
2018-03-22T01:38:46.157Z,75.4
2018-03-22T01:39:47.805Z,76.1
2018-03-22T01:40:49.447Z,75.4
2018-03-22T01:41:51.087Z,74.3
2018-03-22T01:42:52.732Z,74.2
2018-03-22T01:43:54.386Z,74.4
2018-03-22T01:44:56.031Z,74.6
2018-03-22T01:45:57.678Z,74.2
2018-03-22T01:46:59.341Z,75.1
2018-03-22T01:48:00.972Z,75.9
2018-03-22T01:49:02.620Z,76.1
2018-03-22T01:50:04.395Z,76.9
2018-03-22T01:51:06.047Z,77.3
2018-03-22T01:52:07.697Z,77.4
2018-03-22T01:53:09.343Z,76.8
2018-03-22T01:54:10.995Z,76.7
2018-03-22T01:55:12.648Z,77.1
2018-03-22T01:56:14.288Z,76.1
2018-03-22T01:57:15.940Z,75.8
2018-03-22T01:58:17.577Z,76.1
2018-03-22T01:59:19.240Z,77.1
2018-03-22T02:00:20.889Z,77.3
2018-03-22T02:01:22.540Z,78.1
2018-03-22T02:02:24.186Z,78.1
2018-03-22T02:03:25.817Z,78.7
2018-03-22T02:04:27.464Z,78.4
2018-03-22T02:05:29.119Z,79.2
2018-03-22T02:06:30.765Z,78.9
2018-03-22T02:07:32.400Z,78.9
2018-03-22T02:08:34.052Z,78.5
2018-03-22T02:09:35.695Z,78.8
2018-03-22T02:10:37.447Z,79.5
2018-03-22T02:11:39.095Z,79.5
2018-03-22T02:12:40.738Z,79.5
2018-03-22T02:13:42.393Z,78.8
2018-03-22T02:14:44.039Z,78.9
2018-03-22T02:15:45.684Z,78.3
2018-03-22T02:16:47.334Z,78.8
2018-03-22T02:17:48.982Z,79.4
2018-03-22T02:18:50.630Z,79.0
2018-03-22T02:19:52.273Z,79.6
2018-03-22T02:20:53.918Z,79.1
2018-03-22T02:21:55.568Z,79.2
2018-03-22T02:22:57.219Z,78.8
2018-03-22T02:23:58.867Z,78.7
2018-03-22T02:25:00.521Z,79.3
2018-03-22T02:26:02.159Z,79.3
2018-03-22T02:27:03.820Z,79.8
2018-03-22T02:28:05.467Z,80.1
2018-03-22T02:29:07.110Z,80.4
2018-03-22T02:30:08.757Z,80.4
2018-03-22T02:31:10.420Z,79.6
2018-03-22T02:32:12.069Z,80.3
2018-03-22T02:33:13.716Z,81.0
2018-03-22T02:34:15.365Z,81.4
2018-03-22T02:35:17.130Z,81.4
2018-03-22T02:36:18.776Z,81.5
2018-03-22T02:37:20.447Z,81.2
2018-03-22T02:38:22.081Z,81.7
2018-03-22T02:39:23.731Z,82.4
2018-03-22T02:40:25.386Z,83.1
2018-03-22T02:41:27.027Z,83.0
2018-03-22T02:42:28.679Z,83.9
2018-03-22T02:43:30.357Z,84.3
2018-03-22T02:44:32.012Z,84.3
2018-03-22T02:45:33.650Z,84.6
2018-03-22T02:46:35.288Z,84.6
2018-03-22T02:47:36.932Z,83.3
2018-03-22T02:48:38.578Z,81.5
2018-03-22T02:49:40.226Z,81.7
2018-03-22T02:50:41.866Z,81.5
2018-03-22T02:51:43.524Z,81.1
2018-03-22T02:52:45.171Z,79.7
2018-03-22T02:53:46.812Z,77.5
2018-03-22T02:54:48.458Z,75.9
2018-03-22T03:01:13.132Z,61.7
2018-03-22T03:02:14.795Z,66.1
2018-03-22T03:03:16.429Z,67.0
2018-03-22T03:04:18.265Z,67.1
2018-03-22T03:05:19.911Z,67.6
2018-03-22T03:06:21.549Z,67.1
2018-03-22T03:07:23.194Z,67.8
2018-03-22T03:08:24.841Z,67.7
2018-03-22T03:09:26.499Z,67.3
2018-03-22T03:10:28.145Z,67.4
2018-03-22T03:11:29.785Z,67.4
2018-03-22T03:12:31.434Z,68.9
2018-03-22T03:13:33.095Z,67.3
2018-03-22T03:14:34.739Z,67.5
2018-03-22T03:15:36.378Z,68.6
2018-03-22T03:16:38.030Z,68.7
2018-03-22T03:17:39.668Z,68.8
2018-03-22T03:18:41.321Z,69.5
2018-03-22T03:19:42.960Z,70.6
2018-03-22T03:20:44.607Z,71.0
2018-03-22T03:21:46.250Z,70.9
2018-03-22T03:22:47.960Z,70.9
2018-03-22T03:23:49.599Z,70.4
2018-03-22T03:24:51.248Z,70.6
2018-03-22T03:25:52.897Z,71.0
2018-03-22T03:26:54.545Z,70.4
2018-03-22T03:27:56.192Z,70.5
2018-03-22T03:28:57.838Z,70.8
2018-03-22T03:29:59.490Z,71.5
2018-03-22T03:31:01.149Z,70.8
2018-03-22T03:32:02.793Z,71.0
2018-03-22T03:33:04.434Z,71.7
2018-03-22T03:34:06.075Z,71.9
2018-03-22T03:35:07.763Z,73.0
2018-03-22T03:36:09.411Z,72.8
2018-03-22T03:37:11.052Z,73.2
2018-03-22T03:38:12.700Z,73.3
2018-03-22T03:39:14.334Z,72.7
2018-03-22T03:40:16.043Z,72.3
2018-03-22T03:41:17.708Z,72.5
2018-03-22T03:42:19.335Z,72.4
2018-03-22T03:43:20.984Z,72.5
2018-03-22T03:44:22.636Z,71.9
2018-03-22T03:45:24.274Z,72.0
2018-03-22T03:46:25.921Z,71.9
2018-03-22T03:47:27.562Z,71.7
2018-03-22T03:48:29.207Z,71.7
2018-03-22T03:49:30.857Z,72.3
2018-03-22T03:50:32.502Z,71.7
2018-03-22T03:51:34.146Z,72.0
2018-03-22T03:52:35.823Z,72.3
2018-03-22T03:53:37.465Z,71.9
2018-03-22T03:54:39.116Z,72.5
2018-03-22T03:55:40.758Z,73.1
2018-03-22T03:56:42.395Z,72.9
2018-03-22T03:57:44.050Z,72.4
2018-03-22T03:58:45.685Z,72.6
2018-03-22T03:59:47.350Z,72.5
2018-03-22T04:00:48.987Z,72.5
2018-03-22T04:01:50.639Z,72.7
2018-03-22T04:02:52.296Z,73.0
2018-03-22T04:03:53.949Z,72.9
2018-03-22T04:04:55.602Z,72.7
2018-03-22T04:05:57.251Z,72.2
2018-03-22T04:06:58.891Z,71.9
2018-03-22T04:08:00.528Z,72.6
2018-03-22T04:09:02.174Z,72.9
2018-03-22T04:10:03.827Z,73.4
2018-03-22T04:11:05.478Z,73.0
2018-03-22T04:12:07.110Z,73.8
2018-03-22T04:13:08.753Z,73.6
2018-03-22T04:14:10.396Z,73.6
2018-03-22T04:15:12.041Z,73.2
2018-03-22T04:16:13.682Z,73.1
2018-03-22T04:17:15.328Z,73.9
2018-03-22T04:18:16.981Z,73.4
2018-03-22T04:19:19.325Z,72.8
2018-03-22T04:20:20.978Z,73.8
2018-03-22T04:21:22.620Z,73.0
2018-03-22T04:22:24.279Z,73.6
2018-03-22T04:23:25.927Z,72.9
2018-03-22T04:24:27.580Z,73.0
2018-03-22T04:25:29.225Z,72.7
2018-03-22T04:26:30.875Z,73.3
2018-03-22T04:27:32.507Z,73.6
2018-03-22T04:28:34.151Z,73.8
2018-03-22T04:29:35.802Z,74.5
2018-03-22T04:30:37.441Z,74.5
2018-03-22T04:31:39.092Z,74.5
2018-03-22T04:32:40.740Z,75.0
2018-03-22T04:33:42.385Z,75.5
2018-03-22T04:34:44.040Z,74.9
2018-03-22T04:35:45.721Z,75.8
2018-03-22T04:36:47.332Z,76.4
2018-03-22T04:37:48.974Z,76.0
2018-03-22T04:38:50.622Z,76.4
2018-03-22T04:39:52.268Z,75.6
2018-03-22T04:40:53.915Z,76.1
2018-03-22T04:41:55.564Z,76.5
2018-03-22T04:42:57.213Z,76.0
2018-03-22T04:43:58.857Z,75.8
2018-03-22T04:45:00.502Z,75.6
2018-03-22T04:46:02.145Z,76.0
2018-03-22T04:47:03.796Z,76.1
2018-03-22T04:48:05.436Z,75.3
2018-03-22T04:49:07.106Z,75.4
2018-03-22T04:50:08.779Z,75.6
2018-03-22T04:51:10.420Z,75.6
2018-03-22T04:52:12.072Z,75.5
2018-03-22T04:53:13.724Z,75.0
2018-03-22T04:54:15.368Z,74.2
2018-03-22T04:55:17.040Z,74.3
2018-03-22T04:56:18.691Z,73.6
2018-03-22T04:57:20.341Z,74.8
2018-03-22T04:58:21.984Z,75.1
2018-03-22T04:59:23.636Z,75.0
2018-03-22T05:00:25.963Z,74.9
2018-03-22T05:01:27.629Z,75.2
2018-03-22T05:02:29.277Z,74.3
2018-03-22T05:03:30.922Z,73.9
2018-03-22T05:04:32.566Z,72.0
2018-03-22T05:05:34.209Z,70.8
2018-03-22T05:06:35.861Z,69.1
2018-03-22T05:07:37.513Z,67.9
2018-03-22T05:08:39.152Z,66.6
2018-03-22T05:09:40.804Z,64.4
2018-03-22T05:10:42.454Z,63.6
2018-03-22T05:11:44.162Z,62.7
2018-03-22T05:12:45.803Z,60.9
2018-03-22T05:13:47.455Z,60.0
2018-03-22T05:14:49.099Z,58.0
2018-03-22T05:15:50.739Z,56.6
2018-03-22T05:16:52.424Z,56.3
2018-03-22T05:17:54.062Z,55.4
2018-03-22T05:18:55.710Z,54.8
2018-03-22T05:19:57.364Z,55.2
2018-03-22T05:20:59.002Z,55.3
2018-03-22T05:22:00.656Z,54.6
2018-03-22T05:23:02.305Z,54.2
2018-03-22T05:24:03.954Z,52.9
2018-03-22T05:25:05.637Z,53.4
2018-03-22T05:26:07.262Z,52.9
2018-03-22T05:27:08.914Z,53.9
2018-03-22T05:28:10.556Z,54.0
2018-03-22T05:29:12.209Z,53.0
2018-03-22T05:30:13.922Z,53.5
2018-03-22T05:31:15.578Z,55.2
2018-03-22T05:32:17.236Z,54.9
2018-03-22T05:33:18.881Z,54.5
2018-03-22T05:34:20.532Z,54.5
2018-03-22T05:35:22.184Z,55.4
2018-03-22T05:36:23.833Z,54.0
2018-03-22T05:37:25.483Z,53.1
2018-03-22T05:38:27.145Z,53.1
2018-03-22T05:39:28.794Z,51.7
2018-03-22T05:40:30.454Z,51.7
2018-03-22T05:41:32.096Z,51.9
2018-03-22T05:42:33.742Z,52.8
2018-03-22T05:43:35.395Z,52.9
2018-03-22T05:44:37.045Z,53.2
2018-03-22T05:45:38.699Z,52.5
2018-03-22T05:46:40.359Z,52.0
2018-03-22T05:47:42.005Z,52.7
2018-03-22T05:48:43.668Z,52.7
2018-03-22T05:49:45.321Z,54.4
2018-03-22T05:50:46.959Z,54.7
2018-03-22T05:51:48.610Z,54.4
2018-03-22T05:52:50.264Z,54.5
2018-03-22T05:53:51.921Z,55.0
2018-03-22T05:54:53.583Z,55.0
2018-03-22T05:55:55.256Z,54.6
2018-03-22T05:56:56.901Z,55.4
2018-03-22T05:57:58.545Z,55.5
2018-03-22T05:59:00.202Z,55.4
2018-03-22T06:00:01.853Z,55.5
2018-03-22T06:01:03.505Z,56.3
2018-03-22T06:02:05.159Z,56.0
2018-03-22T06:03:06.860Z,56.9
2018-03-22T06:04:08.460Z,56.4
2018-03-22T06:05:10.126Z,56.0
2018-03-22T06:06:11.793Z,55.8
2018-03-22T06:07:13.443Z,54.7
2018-03-22T06:08:15.101Z,54.4
2018-03-22T06:09:16.745Z,55.1
2018-03-22T06:10:18.390Z,55.2
2018-03-22T06:11:20.048Z,56.5
2018-03-22T06:12:21.701Z,55.9
2018-03-22T06:13:23.347Z,55.4
2018-03-22T06:14:25.010Z,55.3
2018-03-22T06:15:26.659Z,56.4
2018-03-22T06:16:28.311Z,55.8
2018-03-22T06:17:30.021Z,56.5
2018-03-22T06:18:31.615Z,57.9
2018-03-22T06:19:33.272Z,57.4
2018-03-22T06:20:34.923Z,57.9
2018-03-22T06:21:36.598Z,58.4
2018-03-22T06:22:38.257Z,57.2
2018-03-22T06:23:39.911Z,56.9
2018-03-22T06:24:42.090Z,57.0
2018-03-22T06:25:43.783Z,55.6
2018-03-22T06:26:45.423Z,56.1
2018-03-22T06:27:47.075Z,56.4
2018-03-22T06:28:48.739Z,56.3
2018-03-22T06:29:50.392Z,55.7
2018-03-22T06:30:52.042Z,55.3
2018-03-22T06:31:53.691Z,55.1
2018-03-22T06:32:55.341Z,55.5
2018-03-22T06:33:57.011Z,55.3
2018-03-22T06:34:58.791Z,54.4
2018-03-22T06:36:00.431Z,53.9
2018-03-22T06:37:02.083Z,53.6
2018-03-22T06:38:03.774Z,53.1
2018-03-22T06:39:05.425Z,52.9
2018-03-22T06:40:07.093Z,52.8
2018-03-22T06:41:08.735Z,52.2
2018-03-22T06:42:10.526Z,51.6
2018-03-22T06:43:12.184Z,51.6
2018-03-22T06:44:13.837Z,51.1
2018-03-22T06:45:15.495Z,50.7
2018-03-22T06:46:17.144Z,50.7
2018-03-22T06:47:18.803Z,50.8
2018-03-22T06:48:20.460Z,50.4
2018-03-22T06:49:22.108Z,50.8
2018-03-22T06:50:23.775Z,50.6
2018-03-22T06:51:25.494Z,50.1
2018-03-22T06:52:27.149Z,49.6
2018-03-22T06:53:28.793Z,49.5
2018-03-22T06:54:30.444Z,49.3
2018-03-22T06:55:32.094Z,48.8
2018-03-22T07:02:03.138Z,30.9
2018-03-22T07:03:04.774Z,36.3
2018-03-22T07:04:06.426Z,39.5
2018-03-22T07:05:08.087Z,41.0
2018-03-22T07:06:09.734Z,41.9
2018-03-22T07:07:11.440Z,41.9
2018-03-22T07:08:13.098Z,42.3
2018-03-22T07:09:14.746Z,43.3
2018-03-22T07:10:16.413Z,43.0
2018-03-22T07:11:18.068Z,41.6
2018-03-22T07:12:19.714Z,42.2
2018-03-22T07:13:21.385Z,43.2
2018-03-22T07:14:23.036Z,43.4
2018-03-22T07:15:24.691Z,43.0
2018-03-22T07:16:26.360Z,43.1
2018-03-22T07:17:27.998Z,43.1
2018-03-22T07:18:29.647Z,42.0
2018-03-22T07:19:31.302Z,41.4
2018-03-22T07:20:32.949Z,40.6
2018-03-22T07:21:34.606Z,39.1
2018-03-22T07:22:36.264Z,38.5
2018-03-22T07:23:37.919Z,38.4
2018-03-22T07:24:39.570Z,38.8
2018-03-22T07:25:42.198Z,38.3
2018-03-22T07:26:43.863Z,38.3
2018-03-22T07:27:45.511Z,38.2
2018-03-22T07:28:47.164Z,37.7
2018-03-22T07:29:48.828Z,38.0
2018-03-22T07:30:50.480Z,38.2
2018-03-22T07:31:52.158Z,37.8
2018-03-22T07:32:55.077Z,37.3
2018-03-22T07:33:56.736Z,36.9
2018-03-22T07:34:58.394Z,37.8
2018-03-22T07:36:00.042Z,38.4
2018-03-22T07:37:01.730Z,40.0
2018-03-22T07:38:03.354Z,41.2
2018-03-22T07:39:05.017Z,40.9
2018-03-22T07:40:06.865Z,40.9
2018-03-22T07:41:08.532Z,42.1
2018-03-22T07:42:10.187Z,41.8
2018-03-22T07:43:11.863Z,42.7
2018-03-22T07:44:13.553Z,43.0
2018-03-22T07:45:15.228Z,44.3
2018-03-22T07:46:16.872Z,44.9
2018-03-22T07:47:18.560Z,45.1
2018-03-22T07:48:20.187Z,44.9
2018-03-22T07:49:21.844Z,45.5
2018-03-22T07:50:23.494Z,48.1
2018-03-22T07:51:25.148Z,47.6
2018-03-22T07:52:28.466Z,46.2
2018-03-22T07:53:29.995Z,46.9
2018-03-22T07:54:31.642Z,47.6
2018-03-22T07:55:33.290Z,49.5
2018-03-22T07:56:34.946Z,49.9
2018-03-22T07:57:36.594Z,48.9
2018-03-22T07:58:38.244Z,48.7
2018-03-22T07:59:39.893Z,48.9
2018-03-22T08:00:41.556Z,48.7
2018-03-22T08:01:43.211Z,47.8
2018-03-22T08:02:44.921Z,48.1
2018-03-22T08:03:46.574Z,48.0
2018-03-22T08:04:48.233Z,47.4
2018-03-22T08:05:49.952Z,48.6
2018-03-22T08:06:51.506Z,49.8
2018-03-22T08:07:53.213Z,49.7
2018-03-22T08:08:54.865Z,48.4
2018-03-22T08:09:56.521Z,49.4
2018-03-22T08:10:58.190Z,50.0
2018-03-22T08:11:59.843Z,48.7
2018-03-22T08:13:01.516Z,50.9
2018-03-22T08:14:03.181Z,48.8
2018-03-22T08:15:04.825Z,49.1
2018-03-22T08:16:06.492Z,49.6
2018-03-22T08:17:08.151Z,50.6
2018-03-22T08:18:09.802Z,50.2
2018-03-22T08:19:11.461Z,50.8
2018-03-22T08:20:13.133Z,51.6
2018-03-22T08:21:14.792Z,50.7
2018-03-22T08:22:16.454Z,50.9
2018-03-22T08:23:18.106Z,51.7
2018-03-22T08:24:19.753Z,50.9
2018-03-22T08:25:21.414Z,50.7
2018-03-22T08:26:23.069Z,50.8
2018-03-22T08:27:24.723Z,50.5
2018-03-22T08:28:26.377Z,50.1
2018-03-22T08:29:28.035Z,49.9
2018-03-22T08:30:29.692Z,48.4
2018-03-22T08:31:31.416Z,48.2
2018-03-22T08:32:33.067Z,47.8
2018-03-22T08:33:34.671Z,47.4
2018-03-22T08:34:36.320Z,47.8
2018-03-22T08:35:37.981Z,47.2
2018-03-22T08:36:39.628Z,47.6
2018-03-22T08:37:41.293Z,46.9
2018-03-22T08:38:42.948Z,47.3
2018-03-22T08:39:44.624Z,46.2
2018-03-22T08:40:46.279Z,44.5
2018-03-22T08:41:48.090Z,47.5
2018-03-22T08:42:49.753Z,48.7
2018-03-22T08:43:51.402Z,45.7
2018-03-22T08:44:53.052Z,45.6
2018-03-22T08:45:54.706Z,44.8
2018-03-22T08:46:56.366Z,47.0
2018-03-22T08:47:58.064Z,46.6
2018-03-22T08:48:59.752Z,45.5
2018-03-22T08:50:01.455Z,44.5
2018-03-22T08:51:03.106Z,44.0
2018-03-22T08:52:04.757Z,42.5
2018-03-22T08:53:06.416Z,43.5
2018-03-22T08:54:08.069Z,43.4
2018-03-22T08:55:09.758Z,44.8
2018-03-22T08:56:11.453Z,47.0
2018-03-22T08:57:13.117Z,46.9
2018-03-22T08:58:14.769Z,46.4
2018-03-22T08:59:16.422Z,45.2
2018-03-22T09:00:18.159Z,43.0
2018-03-22T09:01:19.807Z,47.5
2018-03-22T09:02:21.461Z,47.3
2018-03-22T09:03:23.191Z,46.6
2018-03-22T09:04:24.846Z,45.1
2018-03-22T09:05:26.489Z,44.6
2018-03-22T09:06:28.142Z,43.6
2018-03-22T09:07:29.798Z,42.5
2018-03-22T09:08:31.458Z,40.6
2018-03-22T09:09:33.107Z,40.1
2018-03-22T09:10:34.762Z,38.8
2018-03-22T09:11:36.420Z,38.0
2018-03-22T09:12:38.148Z,38.5
2018-03-22T09:13:39.811Z,39.9
2018-03-22T09:14:41.473Z,40.7
2018-03-22T09:15:43.174Z,39.8
2018-03-22T09:16:44.838Z,40.1
2018-03-22T09:17:46.489Z,40.4
2018-03-22T09:18:48.145Z,40.2
2018-03-22T09:19:49.800Z,40.3
2018-03-22T09:20:51.446Z,41.9
2018-03-22T09:21:53.106Z,43.7
2018-03-22T09:22:54.756Z,41.7
2018-03-22T09:23:56.414Z,44.8
2018-03-22T09:24:58.071Z,44.5
2018-03-22T09:25:59.732Z,44.1
2018-03-22T09:27:01.392Z,47.4
2018-03-22T09:28:03.049Z,47.8
2018-03-22T09:29:04.703Z,49.3
2018-03-22T09:30:06.395Z,49.0
2018-03-22T09:31:08.054Z,51.3
2018-03-22T09:32:09.717Z,49.8
2018-03-22T09:33:11.380Z,49.7
2018-03-22T09:34:13.029Z,51.5
2018-03-22T09:35:14.686Z,50.4
2018-03-22T09:36:16.335Z,50.8
2018-03-22T09:37:17.988Z,50.8
2018-03-22T09:38:19.688Z,49.7
2018-03-22T09:39:21.348Z,51.2
2018-03-22T09:40:23.005Z,50.7
2018-03-22T09:41:24.667Z,53.1
2018-03-22T09:42:26.325Z,51.5
2018-03-22T09:43:27.987Z,53.0
2018-03-22T09:44:29.637Z,52.2
2018-03-22T09:45:31.284Z,54.4
2018-03-22T09:46:32.960Z,54.4
2018-03-22T09:47:34.598Z,58.4
2018-03-22T09:48:36.250Z,58.9
2018-03-22T09:49:37.911Z,57.4
2018-03-22T09:50:39.568Z,60.0
2018-03-22T09:51:41.281Z,62.5
2018-03-22T09:52:42.943Z,58.8
2018-03-22T09:53:44.659Z,56.2
2018-03-22T09:54:46.267Z,58.4
2018-03-22T09:55:47.924Z,62.8
2018-03-22T09:56:49.576Z,65.6
2018-03-22T09:57:51.264Z,64.7
2018-03-22T09:58:52.893Z,63.2
2018-03-22T09:59:54.555Z,62.8
2018-03-22T10:00:56.210Z,62.5
2018-03-22T10:01:57.873Z,60.2
2018-03-22T10:02:59.535Z,57.0
2018-03-22T10:04:01.191Z,61.3
2018-03-22T10:05:02.846Z,61.2
2018-03-22T10:06:04.502Z,62.9
2018-03-22T10:07:06.160Z,66.8
2018-03-22T10:08:07.813Z,64.6
2018-03-22T10:09:09.474Z,63.6
2018-03-22T10:10:11.164Z,67.4
2018-03-22T10:11:12.787Z,68.3
2018-03-22T10:12:14.498Z,65.9
2018-03-22T10:13:16.113Z,64.8
2018-03-22T10:14:17.773Z,67.2
2018-03-22T10:15:19.420Z,65.5
2018-03-22T10:16:21.125Z,68.2
2018-03-22T10:17:22.737Z,64.7
2018-03-22T10:18:24.403Z,66.6
2018-03-22T10:19:26.051Z,64.1
2018-03-22T10:20:27.711Z,65.4
2018-03-22T10:21:29.368Z,60.0
2018-03-22T10:22:31.043Z,60.9
2018-03-22T10:23:32.698Z,65.2
2018-03-22T10:24:34.371Z,68.3
2018-03-22T10:25:36.024Z,65.7
2018-03-22T10:26:37.684Z,65.1
2018-03-22T10:27:39.342Z,59.9
2018-03-22T10:28:40.995Z,63.9
2018-03-22T10:29:42.663Z,66.1
2018-03-22T10:30:44.321Z,62.8
2018-03-22T10:31:45.976Z,68.3
2018-03-22T10:32:47.640Z,65.6
2018-03-22T10:33:49.293Z,68.3
2018-03-22T10:34:50.962Z,64.6
2018-03-22T10:35:52.653Z,60.9
2018-03-22T10:36:54.263Z,62.1
2018-03-22T10:37:55.960Z,67.8
2018-03-22T10:38:57.621Z,66.0
2018-03-22T10:39:59.330Z,67.5
2018-03-22T10:41:00.987Z,66.6
2018-03-22T10:42:02.667Z,70.7
2018-03-22T10:43:04.313Z,69.3
2018-03-22T10:44:05.979Z,66.6
2018-03-22T10:45:07.634Z,70.8
2018-03-22T10:46:09.280Z,73.0
2018-03-22T10:47:10.946Z,65.6
2018-03-22T10:48:12.613Z,69.9
2018-03-22T10:49:14.263Z,67.3
2018-03-22T10:50:15.919Z,65.4
2018-03-22T10:51:17.570Z,68.9
2018-03-22T10:52:19.228Z,68.1
2018-03-22T10:53:20.891Z,71.8
2018-03-22T10:54:22.565Z,68.9
2018-03-22T10:55:24.221Z,70.6
2018-03-22T11:01:29.110Z,67.0
2018-03-22T11:02:30.769Z,60.6
2018-03-22T11:03:32.424Z,64.7
2018-03-22T11:04:34.095Z,74.1
2018-03-22T11:05:35.752Z,72.9
2018-03-22T11:06:37.420Z,82.2
2018-03-22T11:07:39.074Z,71.7
2018-03-22T11:08:40.726Z,73.7
2018-03-22T11:09:42.388Z,72.0
2018-03-22T11:10:44.136Z,70.9
2018-03-22T11:11:45.792Z,66.4
2018-03-22T11:12:47.465Z,69.5
2018-03-22T11:13:49.128Z,72.8
2018-03-22T11:14:50.767Z,71.7
2018-03-22T11:15:52.418Z,74.0
2018-03-22T11:16:54.101Z,72.0
2018-03-22T11:17:55.743Z,71.0
2018-03-22T11:18:57.406Z,67.7
2018-03-22T11:19:59.053Z,66.3
2018-03-22T11:21:00.714Z,65.8
2018-03-22T11:22:02.361Z,64.2
2018-03-22T11:23:04.022Z,63.8
2018-03-22T11:24:05.676Z,62.0
2018-03-22T11:25:07.331Z,64.9
2018-03-22T11:26:08.985Z,64.2
2018-03-22T11:27:10.796Z,69.9
2018-03-22T11:28:12.449Z,67.6
2018-03-22T11:29:14.121Z,66.7
2018-03-22T11:30:15.895Z,64.8
2018-03-22T11:31:17.543Z,63.3
2018-03-22T11:32:19.198Z,63.8
2018-03-22T11:33:20.853Z,62.2
2018-03-22T11:34:22.532Z,63.8
2018-03-22T11:35:24.171Z,61.0
2018-03-22T11:36:25.829Z,60.3
2018-03-22T11:37:27.477Z,59.7
2018-03-22T11:38:29.133Z,57.1
2018-03-22T11:39:30.795Z,58.7
2018-03-22T11:40:32.440Z,60.2
2018-03-22T11:41:34.132Z,60.5
2018-03-22T11:42:35.789Z,67.8
2018-03-22T11:43:37.441Z,63.1
2018-03-22T11:44:39.109Z,65.8
2018-03-22T11:45:40.776Z,64.8
2018-03-22T11:46:42.431Z,69.3
2018-03-22T11:47:44.123Z,71.7
2018-03-22T11:48:45.805Z,76.4
2018-03-22T11:49:47.532Z,78.5
2018-03-22T11:50:49.256Z,67.7
2018-03-22T11:51:50.864Z,67.4
2018-03-22T11:52:52.541Z,66.8
2018-03-22T11:53:54.298Z,69.5
2018-03-22T11:54:55.916Z,73.3
2018-03-22T11:55:57.570Z,69.5
2018-03-22T11:56:59.949Z,75.0
2018-03-22T11:58:01.722Z,70.5
2018-03-22T11:59:03.389Z,67.4
2018-03-22T12:00:05.023Z,68.5
2018-03-22T12:01:06.684Z,67.1
2018-03-22T12:02:08.369Z,64.3
2018-03-22T12:03:10.014Z,65.2
2018-03-22T12:04:11.782Z,63.2
2018-03-22T12:05:14.307Z,63.5
2018-03-22T12:06:15.969Z,65.0
2018-03-22T12:07:17.663Z,63.4
2018-03-22T12:08:19.303Z,58.2
2018-03-22T12:09:20.950Z,59.4
2018-03-22T12:10:22.617Z,58.5
2018-03-22T12:11:24.258Z,58.4
2018-03-22T12:12:25.978Z,58.0
2018-03-22T12:13:27.601Z,59.5
2018-03-22T12:14:29.252Z,57.8
2018-03-22T12:15:30.907Z,56.3
2018-03-22T12:16:32.567Z,55.4
2018-03-22T12:17:34.222Z,53.2
2018-03-22T12:18:35.900Z,50.1
2018-03-22T12:19:37.528Z,46.4
2018-03-22T12:20:39.263Z,46.6
2018-03-22T12:21:40.947Z,48.6
2018-03-22T12:22:42.569Z,51.2
2018-03-22T12:23:44.214Z,49.3
2018-03-22T12:24:45.871Z,47.5
2018-03-22T12:25:47.544Z,47.0
2018-03-22T12:26:49.197Z,45.8
2018-03-22T12:27:51.681Z,45.3
2018-03-22T12:28:53.332Z,45.5
2018-03-22T12:29:54.992Z,45.6
2018-03-22T12:30:56.648Z,40.9
2018-03-22T12:31:58.311Z,44.8
2018-03-22T12:32:59.958Z,42.1
2018-03-22T12:34:01.613Z,48.2
2018-03-22T12:35:03.280Z,48.2
2018-03-22T12:36:04.941Z,49.7
2018-03-22T12:37:06.592Z,48.6
2018-03-22T12:38:08.244Z,44.5
2018-03-22T12:39:10.432Z,46.2
2018-03-22T12:40:12.080Z,48.2
2018-03-22T12:41:13.748Z,45.1
2018-03-22T12:42:15.400Z,50.0
2018-03-22T12:43:17.132Z,50.4
2018-03-22T12:44:18.713Z,51.9
2018-03-22T12:45:20.367Z,51.3
2018-03-22T12:46:22.016Z,49.1
2018-03-22T12:47:23.676Z,47.8
2018-03-22T12:48:25.332Z,46.8
2018-03-22T12:49:26.990Z,49.7
2018-03-22T12:50:28.641Z,52.2
2018-03-22T12:51:30.334Z,47.9
2018-03-22T12:52:31.986Z,49.7
2018-03-22T12:53:33.646Z,46.7
2018-03-22T12:54:35.301Z,45.5
2018-03-22T12:55:36.953Z,41.2
2018-03-22T12:56:38.613Z,38.8
2018-03-22T12:57:40.265Z,44.1
2018-03-22T12:58:41.920Z,51.1
2018-03-22T12:59:43.574Z,53.1
2018-03-22T13:00:45.231Z,50.5
2018-03-22T13:01:46.885Z,49.3
2018-03-22T13:02:48.545Z,50.7
2018-03-22T13:03:50.203Z,50.5
2018-03-22T13:04:51.858Z,49.0
2018-03-22T13:05:53.509Z,47.0
2018-03-22T13:06:55.169Z,46.8
2018-03-22T13:07:56.831Z,47.1
2018-03-22T13:08:58.490Z,46.9
2018-03-22T13:10:00.169Z,49.1
2018-03-22T13:11:01.825Z,48.8
2018-03-22T13:12:03.475Z,47.4
2018-03-22T13:13:05.142Z,50.7
2018-03-22T13:14:06.784Z,46.4
2018-03-22T13:15:08.440Z,47.0
2018-03-22T13:16:10.095Z,47.8
2018-03-22T13:17:11.747Z,46.3
2018-03-22T13:18:13.435Z,49.0
2018-03-22T13:19:15.121Z,47.3
2018-03-22T13:20:16.785Z,51.4
2018-03-22T13:21:18.437Z,52.9
2018-03-22T13:22:20.145Z,58.3
2018-03-22T13:23:21.803Z,57.6
2018-03-22T13:24:23.589Z,57.7
2018-03-22T13:25:25.243Z,56.0
2018-03-22T13:26:26.913Z,63.7
2018-03-22T13:27:28.572Z,61.7
2018-03-22T13:28:30.268Z,62.6
2018-03-22T13:29:31.919Z,65.3
2018-03-22T13:30:33.576Z,64.7
2018-03-22T13:31:35.233Z,60.2
2018-03-22T13:32:36.966Z,59.5
2018-03-22T13:33:38.619Z,57.4
2018-03-22T13:34:40.323Z,59.2
2018-03-22T13:35:41.978Z,60.8
2018-03-22T13:36:43.638Z,57.1
2018-03-22T13:37:45.302Z,58.3
2018-03-22T13:38:49.140Z,55.5
2018-03-22T13:39:50.796Z,60.3
2018-03-22T13:40:52.583Z,63.0
2018-03-22T13:41:54.240Z,68.3
2018-03-22T13:42:55.897Z,66.9
2018-03-22T13:43:57.555Z,69.1
2018-03-22T13:44:59.332Z,68.4
2018-03-22T13:46:01.693Z,72.5
2018-03-22T13:47:03.340Z,72.7
2018-03-22T13:48:05.009Z,70.0
2018-03-22T13:49:06.736Z,67.5
2018-03-22T13:50:08.375Z,68.4
2018-03-22T13:51:10.168Z,68.4
2018-03-22T13:52:12.399Z,71.1
2018-03-22T13:53:14.114Z,68.7
2018-03-22T13:54:15.778Z,68.3
2018-03-22T13:55:17.434Z,68.9
2018-03-22T13:56:19.111Z,69.2